Time;durP1;ratioP1;P1;durP2;ratioP2;P2;SDS_P1;SDS_P2;PMS_P1;PMS_P2;Temp;Humidity;BMP_temperature;BMP_pressure;BME280_temperature;BME280_humidity;BME280_pressure;Samples;Min_cycle;Max_cycle;Signal;HPM_P1;HPM_P2
2022/07/23 00:01:29;;;;;;;8.23;2.37;;;;;;;-143.84;35.77;44942.44;5110930;28;20487;-69
2022/07/23 00:03:56;;;;;;;2.60;2.40;;;;;;;-143.84;36.00;44942.44;5110878;28;20940;-69
2022/07/23 00:06:24;;;;;;;5.40;2.17;;;;;;;-143.84;35.95;44957.66;5110807;28;20439;-69
2022/07/23 00:08:52;;;;;;;8.47;2.40;;;;;;;-143.84;35.96;44915.78;5110354;28;20439;-69
2022/07/23 00:11:21;;;;;;;10.13;2.50;;;;;;;-143.84;36.21;44927.19;5110230;28;20443;-69
2022/07/23 00:13:49;;;;;;;8.20;2.60;;;;;;;-143.84;35.97;44931.00;5110298;28;20500;-69
2022/07/23 00:16:16;;;;;;;4.03;2.30;;;;;;;-143.84;36.03;44936.72;5110447;28;20449;-69
2022/07/23 00:18:43;;;;;;;5.47;2.80;;;;;;;-143.84;35.82;44919.59;5110683;28;20435;-69
2022/07/23 00:21:11;;;;;;;5.43;2.50;;;;;;;-143.84;35.77;44951.97;5110557;28;20479;-69
2022/07/23 00:23:38;;;;;;;23.23;3.00;;;;;;;-143.84;36.13;44957.66;5110517;28;20443;-69
2022/07/23 00:26:07;;;;;;;10.00;2.67;;;;;;;-143.84;36.05;44946.25;5110411;28;20884;-69
2022/07/23 00:28:35;;;;;;;11.90;2.20;;;;;;;-143.84;36.26;44929.09;5110410;28;20804;-69
2022/07/23 00:31:02;;;;;;;3.70;2.50;;;;;;;-143.84;36.08;44908.16;5110684;28;20496;-69
2022/07/23 00:33:29;;;;;;;6.60;2.70;;;;;;;-143.84;36.13;44942.44;5110440;28;20428;-69
2022/07/23 00:35:56;;;;;;;6.23;2.70;;;;;;;-143.84;36.02;44910.06;5110483;28;20427;-69
2022/07/23 00:38:23;;;;;;;5.63;2.70;;;;;;;-143.84;36.09;44929.09;5110082;28;20435;-69
2022/07/23 00:40:50;;;;;;;2.77;2.50;;;;;;;-143.84;36.24;44957.66;5110000;28;20524;-69
2022/07/23 00:43:21;;;;;;;10.77;2.10;;;;;;;-143.84;36.10;44946.25;5110464;28;20435;-69
2022/07/23 00:45:48;;;;;;;8.83;2.40;;;;;;;-143.84;36.22;44932.91;5110399;28;20547;-69
2022/07/23 00:48:15;;;;;;;1.83;1.73;;;;;;;-143.84;36.07;44963.38;5109963;28;20435;-69
2022/07/23 00:50:43;;;;;;;7.10;2.70;;;;;;;-143.84;36.13;44950.06;5110008;28;20863;-69
2022/07/23 00:53:12;;;;;;;6.70;2.53;;;;;;;-143.84;35.86;44934.81;5110049;28;21020;-69
2022/07/23 00:55:39;;;;;;;3.13;2.83;;;;;;;-143.84;35.95;44919.59;5109887;28;20882;-69
2022/07/23 00:58:06;;;;;;;9.23;2.87;;;;;;;-143.84;36.04;44948.16;5109852;28;20436;-69
2022/07/23 01:00:35;;;;;;;8.73;2.97;;;;;;;-143.84;36.06;44923.41;5109538;28;20494;-69
2022/07/23 01:03:02;;;;;;;4.40;2.40;;;;;;;-143.84;35.94;44931.00;5109960;28;20847;-69
2022/07/23 01:05:29;;;;;;;8.20;2.90;;;;;;;-143.84;36.28;44934.81;5109793;28;20439;-69
2022/07/23 01:07:57;;;;;;;6.60;2.63;;;;;;;-143.84;35.88;44936.72;5109286;28;20435;-69
2022/07/23 01:10:34;;;;;;;5.67;3.37;;;;;;;-143.84;35.88;44915.78;5110059;28;21151;-69
2022/07/23 01:13:02;;;;;;;7.63;3.43;;;;;;;-143.84;35.82;44929.09;5109851;28;20431;-69
2022/07/23 01:15:30;;;;;;;6.43;2.73;;;;;;;-143.84;36.15;44925.31;5109503;28;20803;-69
2022/07/23 01:17:58;;;;;;;4.93;3.00;;;;;;;-143.84;35.98;44944.34;5109551;28;20504;-69
2022/07/23 01:20:26;;;;;;;4.30;2.90;;;;;;;-143.84;35.92;44942.44;5109510;28;20474;-69
2022/07/23 01:22:55;;;;;;;14.07;3.17;;;;;;;-143.84;35.79;44921.50;5109770;28;20435;-69
2022/07/23 01:25:23;;;;;;;4.70;3.00;;;;;;;-143.84;35.63;44925.31;5109999;28;20496;-69
2022/07/23 01:27:52;;;;;;;5.73;2.50;;;;;;;-143.84;35.83;44929.09;5109615;28;20443;-69
2022/07/23 01:30:19;;;;;;;2.80;2.03;;;;;;;-143.84;35.81;44951.97;5109474;28;20940;-69
2022/07/23 01:32:46;;;;;;;4.47;2.50;;;;;;;-143.84;35.64;44942.44;5109379;28;20831;-69
2022/07/23 01:35:14;;;;;;;2.60;2.40;;;;;;;-143.84;35.88;44942.44;5109472;28;20484;-69
2022/07/23 01:37:41;;;;;;;2.90;2.60;;;;;;;-143.84;35.50;44931.00;5109449;28;20806;-69
2022/07/23 01:40:10;;;;;;;4.60;3.20;;;;;;;-143.84;35.64;44929.09;5109438;28;20483;-69
2022/07/23 01:42:37;;;;;;;6.10;2.53;;;;;;;-143.84;35.82;44955.75;5109368;28;20439;-69
2022/07/23 01:45:05;;;;;;;4.87;3.10;;;;;;;-143.84;35.73;44919.59;5109216;28;20919;-69
2022/07/23 01:47:32;;;;;;;6.30;2.83;;;;;;;-143.84;35.42;44957.66;5109064;28;20786;-69
2022/07/23 01:49:59;;;;;;;8.30;2.80;;;;;;;-143.84;35.65;44957.66;5109040;28;20504;-69
2022/07/23 01:52:27;;;;;;;4.80;2.63;;;;;;;-143.84;35.87;44938.63;5108642;28;20450;-68
2022/07/23 01:54:54;;;;;;;3.57;2.87;;;;;;;-143.84;35.79;44951.97;5109050;28;20461;-69
2022/07/23 01:57:22;;;;;;;3.43;3.13;;;;;;;-143.84;35.56;44934.81;5109128;28;20809;-69
2022/07/23 01:59:50;;;;;;;6.33;3.33;;;;;;;-143.84;35.48;44942.44;5108961;28;20466;-69
2022/07/23 02:02:17;;;;;;;8.93;2.97;;;;;;;-143.84;35.53;44940.53;5108944;28;20508;-69
2022/07/23 02:04:44;;;;;;;7.93;3.20;;;;;;;-143.84;35.50;44927.19;5109125;28;20434;-69
2022/07/23 02:07:11;;;;;;;11.40;3.37;;;;;;;-143.84;35.42;44934.81;5108936;28;20435;-69
2022/07/23 02:09:38;;;;;;;3.30;2.80;;;;;;;-143.84;35.38;44934.81;5108422;28;20460;-69
2022/07/23 02:12:06;;;;;;;5.23;2.87;;;;;;;-143.84;35.50;44948.16;5108703;28;20813;-69
2022/07/23 02:14:34;;;;;;;6.93;3.47;;;;;;;-143.84;35.39;44929.09;5108758;28;20466;-69
2022/07/23 02:17:02;;;;;;;9.27;2.80;;;;;;;-143.84;35.36;44921.50;5108965;28;20439;-68
2022/07/23 02:19:29;;;;;;;3.50;3.13;;;;;;;-143.84;35.36;44951.97;5111317;28;20967;-69
2022/07/23 02:21:56;;;;;;;2.83;2.47;;;;;;;-143.84;35.30;44927.19;5113011;28;20435;-69
2022/07/23 02:24:23;;;;;;;6.33;3.07;;;;;;;-143.84;35.56;44961.47;5113310;28;20423;-69
2022/07/23 02:26:50;;;;;;;12.07;3.40;;;;;;;-143.84;35.14;44917.69;5112878;28;20473;-69
2022/07/23 02:29:17;;;;;;;5.10;2.80;;;;;;;-143.84;35.08;44942.44;5113078;28;20434;-69
2022/07/23 02:31:46;;;;;;;3.80;3.03;;;;;;;-143.84;35.23;44929.09;5113327;28;20499;-68
2022/07/23 02:34:13;;;;;;;4.43;2.23;;;;;;;-143.84;35.19;44942.44;5113101;28;20443;-69
2022/07/23 02:36:41;;;;;;;10.43;3.00;;;;;;;-143.84;35.30;44929.09;5112675;28;20480;-69
2022/07/23 02:39:08;;;;;;;7.73;2.53;;;;;;;-143.84;35.11;44925.31;5112629;28;20450;-69
2022/07/23 02:41:35;;;;;;;8.53;2.50;;;;;;;-143.84;35.43;44925.31;5112585;28;20519;-68
2022/07/23 02:44:02;;;;;;;11.20;2.80;;;;;;;-143.84;35.16;44931.00;5112358;28;20426;-69
2022/07/23 02:46:29;;;;;;;7.63;3.30;;;;;;;-143.84;35.37;44946.25;5112460;28;20427;-69
2022/07/23 02:48:58;;;;;;;6.90;3.00;;;;;;;-143.84;35.22;44940.53;5112420;28;20507;-69
2022/07/23 02:51:25;;;;;;;5.80;2.60;;;;;;;-143.84;35.11;44932.91;5112519;28;20446;-69
2022/07/23 02:53:52;;;;;;;3.10;2.67;;;;;;;-143.84;34.86;44923.41;5112086;28;20442;-69
2022/07/23 02:56:19;;;;;;;9.80;3.10;;;;;;;-143.84;34.91;44923.41;5112143;28;20500;-69
2022/07/23 02:58:46;;;;;;;7.00;2.70;;;;;;;-143.84;35.34;44953.88;5112262;28;20460;-69
2022/07/23 03:01:13;;;;;;;3.50;2.30;;;;;;;-143.84;35.15;44921.50;5111909;28;20479;-69
2022/07/23 03:03:41;;;;;;;5.73;2.60;;;;;;;-143.84;35.08;44929.09;5112095;28;20435;-69
2022/07/23 03:06:09;;;;;;;10.30;2.97;;;;;;;-143.84;35.03;44946.25;5111998;28;20435;-69
2022/07/23 03:08:36;;;;;;;10.73;3.10;;;;;;;-143.84;35.29;44931.00;5111693;28;20928;-68
2022/07/23 03:11:03;;;;;;;15.23;3.00;;;;;;;-143.84;35.25;44940.53;5111440;28;20439;-68
2022/07/23 03:13:30;;;;;;;2.90;2.60;;;;;;;-143.84;35.11;44904.34;5111738;28;20442;-69
2022/07/23 03:15:58;;;;;;;3.00;2.80;;;;;;;-143.84;35.26;44932.91;5111978;28;20435;-69
2022/07/23 03:18:25;;;;;;;6.47;2.90;;;;;;;-143.84;35.06;44917.69;5111759;28;20431;-68
2022/07/23 03:20:52;;;;;;;8.73;3.33;;;;;;;-143.84;34.72;44923.41;5111798;28;20474;-68
2022/07/23 03:23:20;;;;;;;7.33;2.57;;;;;;;-143.84;35.14;44950.06;5111514;28;20438;-68
2022/07/23 03:25:48;;;;;;;10.30;3.33;;;;;;;-143.84;35.30;44906.25;5111770;28;20439;-69
2022/07/23 03:28:15;;;;;;;6.60;3.23;;;;;;;-143.84;34.97;44915.78;5111654;28;20455;-68
2022/07/23 03:30:42;;;;;;;2.83;2.53;;;;;;;-143.84;34.78;44925.31;5111074;28;20447;-68
2022/07/23 03:33:10;;;;;;;6.80;3.10;;;;;;;-143.84;34.44;44934.81;5111115;28;20940;-68
2022/07/23 03:35:37;;;;;;;13.23;3.83;;;;;;;-143.84;34.50;44889.13;5110988;28;20434;-68
2022/07/23 03:38:04;;;;;;;8.10;3.30;;;;;;;-143.84;34.09;44919.59;5111658;28;20451;-68
2022/07/23 03:40:33;;;;;;;11.43;2.77;;;;;;;-143.84;34.02;44913.88;5111453;28;20478;-68
2022/07/23 03:43:00;;;;;;;4.57;3.00;;;;;;;-143.84;33.80;44915.78;5111787;28;20492;-68
2022/07/23 03:45:27;;;;;;;34.70;3.50;;;;;;;-143.84;33.31;44908.16;5111561;28;20450;-69
2022/07/23 03:47:54;;;;;;;5.83;3.27;;;;;;;-143.84;33.17;44919.59;5111710;28;20435;-69
2022/07/23 03:50:22;;;;;;;5.23;2.80;;;;;;;-143.84;32.59;44915.78;5111567;28;20435;-69
2022/07/23 03:52:49;;;;;;;7.73;2.43;;;;;;;-143.84;32.34;44908.16;5111162;28;20439;-68
2022/07/23 03:55:16;;;;;;;6.23;2.77;;;;;;;-143.84;31.81;44870.09;5111532;28;20431;-69
2022/07/23 03:57:45;;;;;;;3.30;2.57;;;;;;;-143.84;30.86;44820.56;5111349;28;20483;-69
2022/07/23 04:00:13;;;;;;;3.27;2.93;;;;;;;-143.84;30.48;44875.78;5110943;28;20552;-70
2022/07/23 04:02:41;;;;;;;10.53;3.03;;;;;;;-143.84;30.08;44828.19;5110992;28;20438;-70
2022/07/23 04:05:09;;;;;;;9.03;2.40;;;;;;;-143.84;29.69;44812.97;5110844;28;20445;-70
2022/07/23 04:07:36;;;;;;;2.80;2.60;;;;;;;-143.84;29.44;44792.00;5110673;28;20445;-70
2022/07/23 04:10:03;;;;;;;2.97;2.03;;;;;;;-143.84;28.96;44811.06;5110762;28;20439;-70
2022/07/23 04:12:30;;;;;;;11.67;3.20;;;;;;;-143.84;28.84;44772.97;5110811;28;20977;-70
2022/07/23 04:14:59;;;;;;;6.33;2.67;;;;;;;-143.84;28.58;44790.13;5110649;28;20435;-70
2022/07/23 04:17:26;;;;;;;6.50;2.73;;;;;;;-143.84;28.56;44761.56;5110796;28;20437;-70
2022/07/23 04:19:53;;;;;;;5.57;2.97;;;;;;;-143.84;28.74;44790.13;5110713;28;20819;-69
2022/07/23 04:22:21;;;;;;;6.87;2.40;;;;;;;-143.84;28.56;44753.94;5110509;28;20507;-70
2022/07/23 04:24:49;;;;;;;6.00;2.53;;;;;;;-143.84;28.04;44748.22;5110456;28;20439;-70
2022/07/23 04:27:16;;;;;;;10.90;3.40;;;;;;;-143.84;28.22;44763.47;5110604;28;20894;-70
2022/07/23 04:29:43;;;;;;;15.00;3.27;;;;;;;-143.84;28.27;44761.56;5110610;28;20492;-70
2022/07/23 04:32:11;;;;;;;13.70;2.80;;;;;;;-143.84;28.25;44765.34;5110157;28;20435;-70
2022/07/23 04:34:39;;;;;;;9.20;3.07;;;;;;;-143.84;28.16;44736.81;5110684;28;20435;-70
2022/07/23 04:37:07;;;;;;;8.87;2.93;;;;;;;-143.84;27.90;44723.47;5110190;28;20492;-70
2022/07/23 04:39:34;;;;;;;6.93;2.30;;;;;;;-143.84;28.02;44759.66;5110082;28;20450;-69
2022/07/23 04:42:01;;;;;;;7.23;3.00;;;;;;;-143.84;27.86;44738.69;5109449;28;20475;-70
2022/07/23 04:44:28;;;;;;;9.10;2.33;;;;;;;-143.84;27.64;44734.91;5110273;28;20439;-70
2022/07/23 04:46:56;;;;;;;19.13;2.87;;;;;;;-143.84;27.64;44750.13;5110233;28;20439;-70
2022/07/23 04:49:24;;;;;;;6.57;2.13;;;;;;;-143.84;27.97;44753.94;5109883;28;20435;-70
2022/07/23 04:51:52;;;;;;;4.03;2.60;;;;;;;-143.84;27.50;44712.06;5110203;28;20881;-70
2022/07/23 04:54:19;;;;;;;6.50;3.13;;;;;;;-143.84;27.58;44729.19;5109958;28;20435;-70
2022/07/23 04:56:46;;;;;;;3.97;2.60;;;;;;;-143.84;27.37;44742.50;5110282;28;20504;-70
2022/07/23 04:59:13;;;;;;;9.73;2.43;;;;;;;-143.84;27.62;44712.06;5109823;28;20994;-68
2022/07/23 05:01:41;;;;;;;6.23;2.40;;;;;;;-143.84;27.73;44712.06;5109840;28;21116;-70
2022/07/23 05:04:08;;;;;;;4.13;2.33;;;;;;;-143.84;27.62;44706.34;5109612;28;20441;-69
2022/07/23 05:06:37;;;;;;;6.83;2.97;;;;;;;-143.84;27.59;44729.19;5109775;28;20431;-69
2022/07/23 05:09:04;;;;;;;7.43;2.80;;;;;;;-143.84;27.45;44700.63;5109626;28;20523;-69
2022/07/23 05:11:31;;;;;;;6.80;2.67;;;;;;;-143.84;28.05;44700.63;5109464;28;20453;-69
2022/07/23 05:13:59;;;;;;;10.40;3.20;;;;;;;-143.84;27.86;44738.69;5109528;28;20439;-69
2022/07/23 05:16:26;;;;;;;10.97;2.60;;;;;;;-143.84;27.45;44687.28;5109094;28;20442;-69
2022/07/23 05:18:53;;;;;;;12.47;3.67;;;;;;;-143.84;27.51;44733.00;5109367;28;20511;-69
2022/07/23 05:21:20;;;;;;;12.50;3.10;;;;;;;-143.84;27.33;44687.28;5109398;28;21365;-69
2022/07/23 05:23:49;;;;;;;8.10;2.73;;;;;;;-143.84;27.11;44660.63;5109553;28;20441;-69
2022/07/23 05:26:16;;;;;;;4.17;3.20;;;;;;;-143.84;26.79;44662.53;5109648;28;20451;-69
2022/07/23 05:28:44;;;;;;;6.40;2.83;;;;;;;-143.84;27.02;44664.44;5109774;28;20443;-69
2022/07/23 05:31:11;;;;;;;3.37;2.70;;;;;;;-143.84;26.31;44687.28;5109665;28;20446;-69
2022/07/23 05:33:38;;;;;;;10.90;3.00;;;;;;;-143.84;26.65;44668.25;5109475;28;20435;-69
2022/07/23 05:36:06;;;;;;;8.10;2.90;;;;;;;-143.84;26.80;44656.84;5109336;28;20441;-69
2022/07/23 05:38:33;;;;;;;4.50;3.20;;;;;;;-143.84;26.40;44637.78;5109648;28;20472;-69
2022/07/23 05:41:02;;;;;;;8.13;3.13;;;;;;;-143.84;26.13;44675.88;5109220;28;20895;-69
2022/07/23 05:43:29;;;;;;;9.20;2.77;;;;;;;-143.84;26.65;44635.88;5109349;28;20822;-69
2022/07/23 05:45:56;;;;;;;13.13;4.00;;;;;;;-143.84;26.74;44635.88;5109320;28;20818;-69
2022/07/23 05:48:24;;;;;;;9.37;3.90;;;;;;;-143.84;27.27;44634.00;5109107;28;20450;-69
2022/07/23 05:50:51;;;;;;;6.13;3.70;;;;;;;-143.84;27.99;44605.44;5109219;28;20442;-69
2022/07/23 05:53:18;;;;;;;10.13;3.50;;;;;;;-143.84;28.10;44643.50;5111334;28;20994;-69
2022/07/23 05:55:45;;;;;;;14.63;3.30;;;;;;;-143.84;28.19;44622.56;5113455;28;20488;-69
2022/07/23 05:58:14;;;;;;;9.53;3.37;;;;;;;-143.84;28.33;44651.13;5113055;28;20435;-69
2022/07/23 06:00:41;;;;;;;13.90;4.03;;;;;;;-143.84;27.39;44654.94;5113017;28;20525;-69
2022/07/23 06:03:08;;;;;;;15.83;3.60;;;;;;;-143.84;28.25;44656.84;5113003;28;20442;-69
2022/07/23 06:05:35;;;;;;;11.23;3.93;;;;;;;-143.84;27.83;44643.50;5113312;28;20427;-69
2022/07/23 06:08:03;;;;;;;10.27;3.10;;;;;;;-143.84;27.78;44622.56;5112859;28;20446;-69
2022/07/23 06:10:30;;;;;;;10.80;3.30;;;;;;;-143.84;27.44;44672.06;5112801;28;20438;-69
2022/07/23 06:12:57;;;;;;;8.60;3.03;;;;;;;-143.84;26.81;44618.75;5112984;28;20502;-69
2022/07/23 06:15:26;;;;;;;6.63;3.37;;;;;;;-143.84;26.72;44660.63;5112562;28;20446;-69
2022/07/23 06:17:53;;;;;;;21.20;3.70;;;;;;;-143.84;26.74;44618.75;5112090;28;20431;-69
2022/07/23 06:20:20;;;;;;;9.50;3.47;;;;;;;-143.84;28.05;44618.75;5112741;28;20442;-69
2022/07/23 06:22:47;;;;;;;5.90;2.67;;;;;;;-143.84;28.24;44618.75;5112740;28;20486;-69
2022/07/23 06:25:16;;;;;;;10.33;2.83;;;;;;;-143.84;27.03;44613.03;5112927;28;20499;-69
2022/07/23 06:27:43;;;;;;;11.90;3.23;;;;;;;-143.84;27.65;44653.03;5112846;28;20450;-69
2022/07/23 06:30:11;;;;;;;11.13;3.47;;;;;;;-143.84;27.76;44616.84;5113064;28;20857;-69
2022/07/23 06:32:40;;;;;;;14.07;4.10;;;;;;;-143.84;27.35;44622.56;5112488;28;20788;-69
2022/07/23 06:35:08;;;;;;;8.63;3.37;;;;;;;-143.84;27.68;44618.75;5112585;28;20447;-69
2022/07/23 06:37:35;;;;;;;6.40;3.23;;;;;;;-143.84;27.97;44645.41;5112596;28;20468;-69
2022/07/23 06:40:02;;;;;;;8.07;3.40;;;;;;;-143.84;27.35;44634.00;5112480;28;20446;-69
2022/07/23 06:42:29;;;;;;;7.07;3.90;;;;;;;-143.84;26.42;44611.13;5112435;28;20478;-69
2022/07/23 06:44:57;;;;;;;7.23;3.50;;;;;;;-143.84;26.34;44605.44;5112506;28;20499;-69
2022/07/23 06:47:24;;;;;;;13.40;3.63;;;;;;;-143.84;27.60;44653.03;5112379;28;20778;-69
2022/07/23 06:49:53;;;;;;;5.97;3.70;;;;;;;-143.84;27.72;44630.19;5112376;28;20492;-69
2022/07/23 06:52:20;;;;;;;8.07;3.90;;;;;;;-143.84;27.82;44628.28;5112207;28;20503;-69
2022/07/23 06:54:47;;;;;;;9.23;4.47;;;;;;;-143.84;27.44;44601.63;5112283;28;20445;-69
2022/07/23 06:57:14;;;;;;;8.20;4.47;;;;;;;-143.84;26.94;44628.28;5112690;28;20447;-69
2022/07/23 06:59:41;;;;;;;7.93;3.90;;;;;;;-143.84;27.42;44622.56;5112069;28;20442;-69
2022/07/23 07:02:09;;;;;;;6.57;3.03;;;;;;;-143.84;27.34;44637.78;5112041;28;20479;-69
2022/07/23 07:04:36;;;;;;;5.50;3.10;;;;;;;-143.84;26.98;44580.69;5111266;28;20440;-69
2022/07/23 07:07:05;;;;;;;7.27;3.03;;;;;;;-143.84;26.68;44630.19;5112466;28;20613;-69
2022/07/23 07:09:32;;;;;;;16.60;4.10;;;;;;;-143.84;27.23;44614.94;5112274;28;20495;-69
2022/07/23 07:11:59;;;;;;;11.30;4.00;;;;;;;-143.84;27.28;44594.00;5112107;28;20443;-69
2022/07/23 07:14:26;;;;;;;13.90;4.20;;;;;;;-143.84;28.05;44622.56;5112007;28;20454;-69
2022/07/23 07:16:53;;;;;;;9.53;3.93;;;;;;;-143.84;27.76;44605.44;5111800;28;20435;-69
2022/07/23 07:19:20;;;;;;;9.43;2.97;;;;;;;-143.84;25.74;44614.94;5111993;28;20905;-69
2022/07/23 07:21:47;;;;;;;3.63;3.37;;;;;;;-143.84;25.96;44626.38;5111452;28;20475;-69
2022/07/23 07:24:16;;;;;;;5.20;3.23;;;;;;;-143.84;24.49;44613.03;5111896;28;20431;-69
2022/07/23 07:26:43;;;;;;;5.23;3.37;;;;;;;-143.84;25.60;44592.09;5111745;28;20443;-69
2022/07/23 07:29:10;;;;;;;4.70;3.27;;;;;;;-143.84;25.36;44605.44;5111737;28;20438;-69
2022/07/23 07:31:37;;;;;;;8.23;3.50;;;;;;;-143.84;26.15;44626.38;5111622;28;20435;-69
2022/07/23 07:34:04;;;;;;;10.23;3.50;;;;;;;-143.84;25.51;44645.41;5111442;28;20566;-69
2022/07/23 07:36:32;;;;;;;7.77;3.90;;;;;;;-143.84;25.43;44601.63;5111317;28;20454;-69
2022/07/23 07:38:59;;;;;;;10.30;3.20;;;;;;;-143.84;25.40;44616.84;5111139;28;20475;-69
2022/07/23 07:41:28;;;;;;;5.37;3.50;;;;;;;-143.84;25.68;44622.56;5110641;28;20450;-69
2022/07/23 07:43:55;;;;;;;6.20;4.27;;;;;;;-143.84;25.82;44618.75;5110881;28;20516;-69
2022/07/23 07:46:23;;;;;;;9.43;3.53;;;;;;;-143.84;26.38;44597.81;5111820;28;20446;-69
2022/07/23 07:48:51;;;;;;;9.70;3.40;;;;;;;-143.84;26.77;44626.38;5111406;28;20439;-69
2022/07/23 07:51:18;;;;;;;10.20;3.80;;;;;;;-143.84;27.37;44601.63;5110842;28;20433;-69
2022/07/23 07:53:45;;;;;;;9.37;3.50;;;;;;;-143.84;27.40;44620.66;5110377;28;20443;-69
2022/07/23 07:56:12;;;;;;;10.33;3.60;;;;;;;-143.84;27.01;44624.47;5110790;28;20431;-69
2022/07/23 07:58:41;;;;;;;12.57;3.43;;;;;;;-143.84;27.41;44645.41;5110724;28;20439;-69
2022/07/23 08:01:08;;;;;;;10.83;4.20;;;;;;;-143.84;27.35;44651.13;5110914;28;20539;-69
2022/07/23 08:03:35;;;;;;;6.93;3.43;;;;;;;-143.84;28.22;44601.63;5110874;28;20478;-69
2022/07/23 08:06:02;;;;;;;6.97;2.93;;;;;;;-143.84;27.79;44653.03;5110902;28;20442;-69
2022/07/23 08:08:29;;;;;;;14.30;3.00;;;;;;;-143.84;27.75;44622.56;5110795;28;20956;-69
2022/07/23 08:10:56;;;;;;;7.63;3.37;;;;;;;-143.84;28.78;44649.22;5110726;28;20431;-69
2022/07/23 08:13:23;;;;;;;6.90;3.70;;;;;;;-143.84;28.79;44635.88;5110483;28;20940;-69
2022/07/23 08:15:53;;;;;;;26.97;3.70;;;;;;;-143.84;28.92;44660.63;5110521;28;20435;-69
2022/07/23 08:18:21;;;;;;;10.83;3.50;;;;;;;-143.84;27.99;44660.63;5110413;28;20478;-69
2022/07/23 08:20:48;;;;;;;6.67;3.80;;;;;;;-143.84;30.52;44643.50;5110482;28;20496;-69
2022/07/23 08:23:18;;;;;;;7.60;3.57;;;;;;;-143.84;29.32;44630.19;5110967;28;20975;-69
2022/07/23 08:25:46;;;;;;;5.00;3.23;;;;;;;-143.84;28.32;44632.09;5110399;28;20443;-69
2022/07/23 08:28:14;;;;;;;5.00;3.13;;;;;;;-143.84;28.16;44664.44;5110067;28;20457;-69
2022/07/23 08:30:44;;;;;;;8.60;3.80;;;;;;;-143.84;27.51;44637.78;5110506;28;20439;-69
2022/07/23 08:33:14;;;;;;;3.60;3.30;;;;;;;-143.84;28.56;44672.06;5110347;28;20439;-69
2022/07/23 08:35:44;;;;;;;10.93;3.47;;;;;;;-143.84;29.36;44662.53;5110430;28;20423;-69
2022/07/23 08:38:12;;;;;;;6.57;3.07;;;;;;;-143.84;28.56;44658.75;5110103;28;20496;-69
2022/07/23 08:40:41;;;;;;;4.30;2.90;;;;;;;-143.84;28.57;44683.50;5110151;28;20443;-69
2022/07/23 08:43:10;;;;;;;11.80;3.43;;;;;;;-143.84;27.91;44660.63;5109867;28;20483;-69
2022/07/23 08:45:39;;;;;;;15.77;3.70;;;;;;;-143.84;29.42;44654.94;5110226;28;20443;-69
2022/07/23 08:48:09;;;;;;;4.17;3.30;;;;;;;-143.84;29.30;44687.28;5110070;28;20462;-69
2022/07/23 08:50:41;;;;;;;6.47;3.40;;;;;;;-143.84;28.84;44691.09;5109939;28;20936;-69
2022/07/23 08:53:08;;;;;;;7.67;3.63;;;;;;;-143.84;29.70;44649.22;5110173;28;20451;-69
2022/07/23 08:55:35;;;;;;;9.77;3.73;;;;;;;-143.84;29.16;44666.34;5110149;28;20427;-69
2022/07/23 08:58:03;;;;;;;6.00;3.37;;;;;;;-143.84;28.25;44656.84;5109520;28;20901;-69
2022/07/23 09:00:31;;;;;;;6.00;3.00;;;;;;;-143.84;29.90;44647.31;5109280;28;20527;-69
2022/07/23 09:02:58;;;;;;;5.93;3.80;;;;;;;-143.84;30.20;44668.25;5109447;28;20479;-69
2022/07/23 09:05:25;;;;;;;8.97;3.67;;;;;;;-143.84;30.48;44670.16;5108871;28;20492;-69
2022/07/23 09:08:11;;;;;;;9.57;4.07;;;;;;;-143.84;28.33;44658.75;5109887;28;20438;-69
2022/07/23 09:10:49;;;;;;;8.20;3.60;;;;;;;-143.84;29.08;44662.53;5109409;28;20446;-69
2022/07/23 09:13:32;;;;;;;7.53;3.67;;;;;;;-143.84;29.61;44672.06;5109282;28;20469;-69
2022/07/23 09:16:02;;;;;;;10.17;3.07;;;;;;;-143.84;29.53;44664.44;5110593;28;20435;-71
2022/07/23 09:18:31;;;;;;;6.37;3.47;;;;;;;-143.84;30.79;44700.63;5111081;28;20431;-71
2022/07/23 09:21:11;;;;;;;14.77;4.20;;;;;;;-143.84;29.66;44677.78;5110619;28;20448;-71
2022/07/23 09:23:41;;;;;;;4.90;3.30;;;;;;;-143.84;30.15;44691.09;5110866;28;20898;-71
2022/07/23 09:26:26;;;;;;;4.20;3.30;;;;;;;-143.84;29.60;44704.44;5110450;28;21001;-71
2022/07/23 09:28:58;;;;;;;21.00;3.43;;;;;;;-143.84;30.12;44706.34;5110019;28;20457;-71
2022/07/23 09:31:26;;;;;;;14.30;3.50;;;;;;;-143.84;29.09;44687.28;5110780;28;20492;-71
2022/07/23 09:34:09;;;;;;;3.47;3.17;;;;;;;-143.84;29.05;44708.25;5110226;28;20952;-71
2022/07/23 09:36:37;;;;;;;8.83;3.30;;;;;;;-143.84;28.96;44691.09;5109947;28;20984;-71
2022/07/23 09:39:05;;;;;;;13.83;3.80;;;;;;;;;;5110451;28;20969;-72
2022/07/23 09:41:40;;;;;;;3.73;3.10;;;;;;;-143.84;28.74;44670.16;5110409;28;20428;-72
2022/07/23 09:44:12;;;;;;;11.03;3.60;;;;;;;-143.84;28.52;44706.34;5110409;28;20470;-72
2022/07/23 09:46:40;;;;;;;13.87;3.90;;;;;;;-143.84;28.57;44729.19;5110353;28;20465;-72
2022/07/23 09:49:20;;;;;;;4.90;2.90;;;;;;;-143.84;29.40;44713.94;5110187;28;20573;-72
2022/07/23 09:51:54;;;;;;;11.10;3.43;;;;;;;-143.84;29.35;44725.38;5110279;28;20443;-72
2022/07/23 09:54:41;;;;;;;7.70;3.70;;;;;;;-143.84;29.58;44654.94;5110781;28;20443;-72
2022/07/23 09:57:10;;;;;;;4.50;3.97;;;;;;;;;;5110539;28;20423;-72
2022/07/23 09:59:39;;;;;;;5.07;3.20;;;;;;;-143.84;29.30;44691.09;5109870;28;20792;-72
2022/07/23 10:02:08;;;;;;;10.33;3.60;;;;;;;-143.84;30.17;44752.03;5110126;28;20912;-72
2022/07/23 10:04:36;;;;;;;6.60;3.70;;;;;;;-143.84;29.86;44729.19;5110000;28;20859;-72
2022/07/23 10:07:06;;;;;;;5.33;3.60;;;;;;;-143.84;30.56;44725.38;5110410;28;20845;-72
2022/07/23 10:09:35;;;;;;;9.30;3.73;;;;;;;-143.84;30.81;44734.91;5109294;28;20438;-72
2022/07/23 10:12:10;;;;;;;8.67;3.20;;;;;;;-143.84;30.73;44715.84;5109659;28;20530;-72
2022/07/23 10:14:38;;;;;;;11.50;3.60;;;;;;;-143.84;31.43;44721.56;5109663;28;20480;-72
2022/07/23 10:17:05;;;;;;;6.53;3.47;;;;;;;-143.84;32.24;44740.59;5110147;28;20474;-72
2022/07/23 10:19:34;;;;;;;6.30;3.03;;;;;;;-143.84;32.41;44750.13;5110119;28;20431;-72
2022/07/23 10:22:03;;;;;;;12.33;3.70;;;;;;;-143.84;32.23;44752.03;5110114;28;20435;-72
2022/07/23 10:24:50;;;;;;;11.63;3.33;;;;;;;-143.84;32.63;44717.75;5109782;28;20435;-72
2022/07/23 10:27:38;;;;;;;13.27;4.20;;;;;;;-143.84;33.57;44740.59;5110251;28;20426;-72
2022/07/23 10:30:07;;;;;;;6.30;3.90;;;;;;;-143.84;32.86;44725.38;5110177;28;20464;-72
2022/07/23 10:32:43;;;;;;;6.10;3.40;;;;;;;-143.84;33.47;44750.13;5110031;28;20521;-72
2022/07/23 10:35:19;;;;;;;6.80;4.10;;;;;;;-143.84;34.01;44748.22;5109828;28;20438;-72
2022/07/23 10:37:50;;;;;;;11.53;4.43;;;;;;;-143.84;34.03;44755.84;5109940;28;20442;-72
2022/07/23 10:40:19;;;;;;;4.20;3.50;;;;;;;-143.84;33.85;44753.94;5111629;28;20838;-72
2022/07/23 10:42:48;;;;;;;8.47;3.50;;;;;;;-143.84;35.10;44763.47;5113650;28;20469;-72
2022/07/23 10:45:30;;;;;;;9.63;4.10;;;;;;;-143.84;34.90;44778.69;5113444;28;20431;-72
2022/07/23 10:48:13;;;;;;;9.40;4.00;;;;;;;-143.84;34.57;44790.13;5113524;28;20430;-72
2022/07/23 10:50:41;;;;;;;7.63;3.80;;;;;;;-143.84;35.16;44740.59;5113563;28;20467;-72
2022/07/23 10:53:17;;;;;;;4.10;3.80;;;;;;;-143.84;35.48;44746.31;5113520;28;20443;-72
2022/07/23 10:55:47;;;;;;;10.30;3.40;;;;;;;-143.84;35.31;44763.47;5113424;28;20463;-72
2022/07/23 10:58:22;;;;;;;7.27;3.40;;;;;;;-143.84;35.45;44782.50;5113245;28;20925;-72
2022/07/23 11:00:50;;;;;;;5.93;3.70;;;;;;;-143.84;35.53;44780.59;5113447;28;20735;-72
2022/07/23 11:03:33;;;;;;;3.67;3.30;;;;;;;-143.84;35.62;44778.69;5113339;28;20475;-71
2022/07/23 11:06:00;;;;;;;5.80;3.40;;;;;;;-143.84;35.19;44774.88;5113216;28;20526;-71
2022/07/23 11:08:27;;;;;;;12.40;3.10;;;;;;;-143.84;34.39;44769.16;5113111;28;20447;-71
2022/07/23 11:10:57;;;;;;;8.60;4.00;;;;;;;-143.84;34.31;44790.13;5113150;28;20446;-71
2022/07/23 11:13:50;;;;;;;6.63;3.27;;;;;;;-143.84;33.92;44769.16;5113304;28;20458;-71
2022/07/23 11:16:27;;;;;;;12.17;3.63;;;;;;;-143.84;34.00;44803.44;5093216;28;20511;-71
2022/07/23 11:19:09;;;;;;;8.83;3.53;;;;;;;-143.84;33.46;44788.22;5112109;28;20518;-71
2022/07/23 11:21:43;;;;;;;5.30;3.00;;;;;;;-143.84;34.40;44780.59;5112579;28;20439;-71
2022/07/23 11:24:12;;;;;;;10.40;3.80;;;;;;;-143.84;35.72;44774.88;5113079;28;20482;-71